sensor_id;sensor_type;location;lat;lon;timestamp;P1;durP1;ratioP1;P2;durP2;ratioP2
2562;SDS011;1291;51.420;6.970;2023-06-14T00:00:19;8.63;;;6.40;;
2562;SDS011;1291;51.420;6.970;2023-06-14T00:02:45;10.05;;;6.93;;
2562;SDS011;1291;51.420;6.970;2023-06-14T00:05:10;9.68;;;6.35;;
2562;SDS011;1291;51.420;6.970;2023-06-14T00:07:40;10.93;;;6.55;;
2562;SDS011;1291;51.420;6.970;2023-06-14T00:10:13;6.72;;;6.03;;
2562;SDS011;1291;51.420;6.970;2023-06-14T00:12:39;8.13;;;6.40;;
2562;SDS011;1291;51.420;6.970;2023-06-14T00:15:04;7.32;;;6.28;;
2562;SDS011;1291;51.420;6.970;2023-06-14T00:17:36;11.85;;;6.53;;
2562;SDS011;1291;51.420;6.970;2023-06-14T00:20:04;8.15;;;6.30;;
2562;SDS011;1291;51.420;6.970;2023-06-14T00:22:33;7.28;;;5.60;;
2562;SDS011;1291;51.420;6.970;2023-06-14T00:24:58;8.13;;;6.35;;
2562;SDS011;1291;51.420;6.970;2023-06-14T00:27:24;8.63;;;6.97;;
2562;SDS011;1291;51.420;6.970;2023-06-14T00:29:50;9.27;;;6.00;;
2562;SDS011;1291;51.420;6.970;2023-06-14T00:32:18;8.15;;;6.25;;
2562;SDS011;1291;51.420;6.970;2023-06-14T00:34:43;8.25;;;5.68;;
2562;SDS011;1291;51.420;6.970;2023-06-14T00:37:08;8.48;;;5.82;;
2562;SDS011;1291;51.420;6.970;2023-06-14T00:39:34;11.65;;;6.43;;
2562;SDS011;1291;51.420;6.970;2023-06-14T00:42:00;10.52;;;6.25;;
2562;SDS011;1291;51.420;6.970;2023-06-14T00:44:25;8.95;;;6.53;;
2562;SDS011;1291;51.420;6.970;2023-06-14T00:46:50;9.30;;;5.90;;
2562;SDS011;1291;51.420;6.970;2023-06-14T00:49:16;9.00;;;6.13;;
2562;SDS011;1291;51.420;6.970;2023-06-14T00:51:42;7.85;;;5.97;;
2562;SDS011;1291;51.420;6.970;2023-06-14T00:54:08;10.85;;;5.43;;
2562;SDS011;1291;51.420;6.970;2023-06-14T00:56:40;10.82;;;5.72;;
2562;SDS011;1291;51.420;6.970;2023-06-14T00:59:08;8.57;;;5.72;;
2562;SDS011;1291;51.420;6.970;2023-06-14T01:01:36;6.03;;;5.30;;
2562;SDS011;1291;51.420;6.970;2023-06-14T01:04:02;6.47;;;5.72;;
2562;SDS011;1291;51.420;6.970;2023-06-14T01:06:42;10.10;;;5.95;;
2562;SDS011;1291;51.420;6.970;2023-06-14T01:09:21;6.10;;;5.50;;
2562;SDS011;1291;51.420;6.970;2023-06-14T01:14:54;7.18;;;5.93;;
2562;SDS011;1291;51.420;6.970;2023-06-14T01:17:22;7.50;;;5.95;;
2562;SDS011;1291;51.420;6.970;2023-06-14T01:19:48;7.45;;;5.32;;
2562;SDS011;1291;51.420;6.970;2023-06-14T01:22:13;9.48;;;5.72;;
2562;SDS011;1291;51.420;6.970;2023-06-14T01:24:39;8.77;;;5.85;;
2562;SDS011;1291;51.420;6.970;2023-06-14T01:27:12;11.05;;;5.43;;
2562;SDS011;1291;51.420;6.970;2023-06-14T01:29:40;7.00;;;5.72;;
2562;SDS011;1291;51.420;6.970;2023-06-14T01:32:10;6.13;;;5.53;;
2562;SDS011;1291;51.420;6.970;2023-06-14T01:34:36;10.23;;;5.63;;
2562;SDS011;1291;51.420;6.970;2023-06-14T01:37:01;8.15;;;5.10;;
2562;SDS011;1291;51.420;6.970;2023-06-14T01:39:27;8.13;;;5.32;;
2562;SDS011;1291;51.420;6.970;2023-06-14T01:41:53;6.47;;;5.43;;
2562;SDS011;1291;51.420;6.970;2023-06-14T01:44:18;6.57;;;4.88;;
2562;SDS011;1291;51.420;6.970;2023-06-14T01:46:45;7.50;;;4.90;;
2562;SDS011;1291;51.420;6.970;2023-06-14T01:49:10;9.13;;;5.32;;
2562;SDS011;1291;51.420;6.970;2023-06-14T01:51:36;5.78;;;5.20;;
2562;SDS011;1291;51.420;6.970;2023-06-14T01:54:01;5.70;;;5.00;;
2562;SDS011;1291;51.420;6.970;2023-06-14T01:56:27;5.68;;;5.10;;
2562;SDS011;1291;51.420;6.970;2023-06-14T01:58:52;5.45;;;4.95;;
2562;SDS011;1291;51.420;6.970;2023-06-14T02:01:18;6.57;;;5.00;;
2562;SDS011;1291;51.420;6.970;2023-06-14T02:03:46;7.75;;;5.60;;
2562;SDS011;1291;51.420;6.970;2023-06-14T02:06:11;5.85;;;4.80;;
2562;SDS011;1291;51.420;6.970;2023-06-14T02:08:37;7.88;;;5.43;;
2562;SDS011;1291;51.420;6.970;2023-06-14T02:11:02;8.65;;;5.60;;
2562;SDS011;1291;51.420;6.970;2023-06-14T02:13:28;8.02;;;5.45;;
2562;SDS011;1291;51.420;6.970;2023-06-14T02:15:53;8.63;;;5.28;;
2562;SDS011;1291;51.420;6.970;2023-06-14T02:18:19;5.40;;;4.90;;
2562;SDS011;1291;51.420;6.970;2023-06-14T02:20:46;9.23;;;4.88;;
2562;SDS011;1291;51.420;6.970;2023-06-14T02:23:12;7.18;;;5.30;;
2562;SDS011;1291;51.420;6.970;2023-06-14T02:25:37;7.03;;;5.13;;
2562;SDS011;1291;51.420;6.970;2023-06-14T02:28:04;8.68;;;5.28;;
2562;SDS011;1291;51.420;6.970;2023-06-14T02:30:30;8.45;;;5.38;;
2562;SDS011;1291;51.420;6.970;2023-06-14T02:32:55;5.85;;;5.25;;
2562;SDS011;1291;51.420;6.970;2023-06-14T02:35:21;6.25;;;4.78;;
2562;SDS011;1291;51.420;6.970;2023-06-14T02:37:49;9.40;;;4.82;;
2562;SDS011;1291;51.420;6.970;2023-06-14T02:40:16;6.95;;;5.20;;
2562;SDS011;1291;51.420;6.970;2023-06-14T02:42:41;9.30;;;5.22;;
2562;SDS011;1291;51.420;6.970;2023-06-14T02:45:07;7.63;;;5.22;;
2562;SDS011;1291;51.420;6.970;2023-06-14T02:47:39;6.32;;;5.13;;
2562;SDS011;1291;51.420;6.970;2023-06-14T02:50:08;5.82;;;4.93;;
2562;SDS011;1291;51.420;6.970;2023-06-14T02:52:33;7.45;;;5.25;;
2562;SDS011;1291;51.420;6.970;2023-06-14T02:54:59;8.20;;;5.13;;
2562;SDS011;1291;51.420;6.970;2023-06-14T02:57:24;7.25;;;5.05;;
2562;SDS011;1291;51.420;6.970;2023-06-14T02:59:50;9.13;;;4.80;;
2562;SDS011;1291;51.420;6.970;2023-06-14T03:02:15;9.00;;;4.63;;
2562;SDS011;1291;51.420;6.970;2023-06-14T03:04:43;7.22;;;5.10;;
2562;SDS011;1291;51.420;6.970;2023-06-14T03:07:11;6.82;;;5.22;;
2562;SDS011;1291;51.420;6.970;2023-06-14T03:09:37;7.90;;;5.13;;
2562;SDS011;1291;51.420;6.970;2023-06-14T03:12:03;6.60;;;5.20;;
2562;SDS011;1291;51.420;6.970;2023-06-14T03:14:31;9.40;;;5.50;;
2562;SDS011;1291;51.420;6.970;2023-06-14T03:16:57;5.53;;;4.55;;
2562;SDS011;1291;51.420;6.970;2023-06-14T03:19:22;8.48;;;4.97;;
2562;SDS011;1291;51.420;6.970;2023-06-14T03:21:48;6.93;;;5.07;;
2562;SDS011;1291;51.420;6.970;2023-06-14T03:24:14;5.93;;;5.15;;
2562;SDS011;1291;51.420;6.970;2023-06-14T03:26:41;7.07;;;5.25;;
2562;SDS011;1291;51.420;6.970;2023-06-14T03:29:06;7.45;;;5.53;;
2562;SDS011;1291;51.420;6.970;2023-06-14T03:31:41;5.97;;;5.30;;
2562;SDS011;1291;51.420;6.970;2023-06-14T03:34:23;5.95;;;4.82;;
2562;SDS011;1291;51.420;6.970;2023-06-14T03:36:48;6.32;;;5.03;;
2562;SDS011;1291;51.420;6.970;2023-06-14T03:39:14;6.43;;;5.00;;
2562;SDS011;1291;51.420;6.970;2023-06-14T03:41:42;5.72;;;5.13;;
2562;SDS011;1291;51.420;6.970;2023-06-14T03:44:08;9.15;;;5.65;;
2562;SDS011;1291;51.420;6.970;2023-06-14T03:46:33;6.40;;;5.25;;
2562;SDS011;1291;51.420;6.970;2023-06-14T03:48:58;6.43;;;5.00;;
2562;SDS011;1291;51.420;6.970;2023-06-14T03:51:23;8.80;;;4.68;;
2562;SDS011;1291;51.420;6.970;2023-06-14T03:53:50;5.45;;;4.57;;
2562;SDS011;1291;51.420;6.970;2023-06-14T03:56:15;8.40;;;4.95;;
2562;SDS011;1291;51.420;6.970;2023-06-14T03:58:41;10.27;;;5.00;;
2562;SDS011;1291;51.420;6.970;2023-06-14T04:01:09;8.25;;;5.32;;
2562;SDS011;1291;51.420;6.970;2023-06-14T04:03:37;8.32;;;4.90;;
2562;SDS011;1291;51.420;6.970;2023-06-14T04:06:03;9.38;;;5.05;;
2562;SDS011;1291;51.420;6.970;2023-06-14T04:08:30;7.65;;;4.95;;
2562;SDS011;1291;51.420;6.970;2023-06-14T04:10:56;9.15;;;5.22;;
2562;SDS011;1291;51.420;6.970;2023-06-14T04:13:21;9.52;;;4.93;;
2562;SDS011;1291;51.420;6.970;2023-06-14T04:15:46;5.60;;;4.88;;
2562;SDS011;1291;51.420;6.970;2023-06-14T04:18:12;5.28;;;4.78;;
2562;SDS011;1291;51.420;6.970;2023-06-14T04:20:37;5.55;;;4.75;;
2562;SDS011;1291;51.420;6.970;2023-06-14T04:23:12;5.45;;;4.63;;
2562;SDS011;1291;51.420;6.970;2023-06-14T04:25:38;10.40;;;5.38;;
2562;SDS011;1291;51.420;6.970;2023-06-14T04:28:03;7.97;;;5.05;;
2562;SDS011;1291;51.420;6.970;2023-06-14T04:30:29;6.15;;;4.72;;
2562;SDS011;1291;51.420;6.970;2023-06-14T04:32:56;5.78;;;4.60;;
2562;SDS011;1291;51.420;6.970;2023-06-14T04:35:22;9.32;;;4.85;;
2562;SDS011;1291;51.420;6.970;2023-06-14T04:37:49;7.00;;;4.60;;
2562;SDS011;1291;51.420;6.970;2023-06-14T04:40:14;6.47;;;4.55;;
2562;SDS011;1291;51.420;6.970;2023-06-14T04:42:40;10.38;;;4.95;;
2562;SDS011;1291;51.420;6.970;2023-06-14T04:45:06;6.78;;;4.43;;
2562;SDS011;1291;51.420;6.970;2023-06-14T04:47:32;8.05;;;4.50;;
2562;SDS011;1291;51.420;6.970;2023-06-14T04:49:59;5.47;;;4.13;;
2562;SDS011;1291;51.420;6.970;2023-06-14T04:52:25;5.95;;;4.15;;
2562;SDS011;1291;51.420;6.970;2023-06-14T04:54:51;7.90;;;4.78;;
2562;SDS011;1291;51.420;6.970;2023-06-14T04:57:19;10.00;;;4.60;;
2562;SDS011;1291;51.420;6.970;2023-06-14T04:59:47;6.50;;;4.40;;
2562;SDS011;1291;51.420;6.970;2023-06-14T05:02:12;7.28;;;4.32;;
2562;SDS011;1291;51.420;6.970;2023-06-14T05:04:37;6.32;;;3.90;;
2562;SDS011;1291;51.420;6.970;2023-06-14T05:07:12;6.13;;;4.55;;
2562;SDS011;1291;51.420;6.970;2023-06-14T05:09:39;4.97;;;4.10;;
2562;SDS011;1291;51.420;6.970;2023-06-14T05:12:04;5.30;;;4.40;;
2562;SDS011;1291;51.420;6.970;2023-06-14T05:14:33;4.80;;;3.80;;
2562;SDS011;1291;51.420;6.970;2023-06-14T05:16:58;5.10;;;4.22;;
2562;SDS011;1291;51.420;6.970;2023-06-14T05:19:24;4.78;;;3.90;;
2562;SDS011;1291;51.420;6.970;2023-06-14T05:21:50;6.32;;;3.95;;
2562;SDS011;1291;51.420;6.970;2023-06-14T05:24:15;5.88;;;3.88;;
2562;SDS011;1291;51.420;6.970;2023-06-14T05:26:45;8.95;;;4.20;;
2562;SDS011;1291;51.420;6.970;2023-06-14T05:29:11;6.43;;;4.13;;
2562;SDS011;1291;51.420;6.970;2023-06-14T05:31:37;9.50;;;4.30;;
2562;SDS011;1291;51.420;6.970;2023-06-14T05:34:02;6.63;;;3.90;;
2562;SDS011;1291;51.420;6.970;2023-06-14T05:36:28;4.25;;;3.83;;
2562;SDS011;1291;51.420;6.970;2023-06-14T05:38:53;10.63;;;4.40;;
2562;SDS011;1291;51.420;6.970;2023-06-14T05:41:29;9.02;;;4.47;;
2562;SDS011;1291;51.420;6.970;2023-06-14T05:43:55;6.55;;;3.65;;
2562;SDS011;1291;51.420;6.970;2023-06-14T05:46:21;4.63;;;3.65;;
2562;SDS011;1291;51.420;6.970;2023-06-14T05:48:49;10.77;;;4.50;;
2562;SDS011;1291;51.420;6.970;2023-06-14T05:51:15;6.68;;;3.47;;
2562;SDS011;1291;51.420;6.970;2023-06-14T05:53:44;6.05;;;3.78;;
2562;SDS011;1291;51.420;6.970;2023-06-14T05:56:15;6.00;;;3.65;;
2562;SDS011;1291;51.420;6.970;2023-06-14T05:58:45;4.85;;;3.28;;
2562;SDS011;1291;51.420;6.970;2023-06-14T06:01:11;5.85;;;3.50;;
2562;SDS011;1291;51.420;6.970;2023-06-14T06:03:38;4.97;;;3.72;;
2562;SDS011;1291;51.420;6.970;2023-06-14T06:06:03;6.97;;;3.80;;
2562;SDS011;1291;51.420;6.970;2023-06-14T06:08:29;9.68;;;3.53;;
2562;SDS011;1291;51.420;6.970;2023-06-14T06:10:54;9.45;;;3.85;;
2562;SDS011;1291;51.420;6.970;2023-06-14T06:13:23;6.82;;;3.75;;
2562;SDS011;1291;51.420;6.970;2023-06-14T06:15:48;5.72;;;3.72;;
2562;SDS011;1291;51.420;6.970;2023-06-14T06:18:14;9.13;;;4.00;;
2562;SDS011;1291;51.420;6.970;2023-06-14T06:20:39;6.35;;;3.58;;
2562;SDS011;1291;51.420;6.970;2023-06-14T06:23:04;11.07;;;4.03;;
2562;SDS011;1291;51.420;6.970;2023-06-14T06:25:30;7.40;;;3.80;;
2562;SDS011;1291;51.420;6.970;2023-06-14T06:27:56;5.30;;;4.00;;
2562;SDS011;1291;51.420;6.970;2023-06-14T06:30:22;5.03;;;3.72;;
2562;SDS011;1291;51.420;6.970;2023-06-14T06:32:48;7.88;;;4.10;;
2562;SDS011;1291;51.420;6.970;2023-06-14T06:35:14;5.53;;;3.22;;
2562;SDS011;1291;51.420;6.970;2023-06-14T06:37:40;5.82;;;3.45;;
2562;SDS011;1291;51.420;6.970;2023-06-14T06:40:06;4.65;;;3.00;;
2562;SDS011;1291;51.420;6.970;2023-06-14T06:42:33;5.22;;;3.08;;
2562;SDS011;1291;51.420;6.970;2023-06-14T06:44:58;5.03;;;2.47;;
2562;SDS011;1291;51.420;6.970;2023-06-14T06:47:23;5.65;;;2.63;;
2562;SDS011;1291;51.420;6.970;2023-06-14T06:49:49;9.52;;;2.65;;
2562;SDS011;1291;51.420;6.970;2023-06-14T06:52:15;3.15;;;2.53;;
2562;SDS011;1291;51.420;6.970;2023-06-14T06:54:40;3.38;;;2.50;;
2562;SDS011;1291;51.420;6.970;2023-06-14T06:57:06;2.90;;;2.50;;
2562;SDS011;1291;51.420;6.970;2023-06-14T06:59:31;4.63;;;2.40;;
2562;SDS011;1291;51.420;6.970;2023-06-14T07:01:57;2.83;;;2.03;;
2562;SDS011;1291;51.420;6.970;2023-06-14T07:04:22;2.50;;;2.30;;
2562;SDS011;1291;51.420;6.970;2023-06-14T07:06:48;4.03;;;2.10;;
2562;SDS011;1291;51.420;6.970;2023-06-14T07:09:13;4.03;;;2.40;;
2562;SDS011;1291;51.420;6.970;2023-06-14T07:11:40;4.63;;;2.33;;
2562;SDS011;1291;51.420;6.970;2023-06-14T07:14:06;5.57;;;2.53;;
2562;SDS011;1291;51.420;6.970;2023-06-14T07:16:31;3.63;;;2.35;;
2562;SDS011;1291;51.420;6.970;2023-06-14T07:18:57;2.05;;;1.85;;
2562;SDS011;1291;51.420;6.970;2023-06-14T07:21:22;4.05;;;2.67;;
2562;SDS011;1291;51.420;6.970;2023-06-14T07:23:47;3.05;;;2.20;;
2562;SDS011;1291;51.420;6.970;2023-06-14T07:26:13;5.13;;;2.20;;
2562;SDS011;1291;51.420;6.970;2023-06-14T07:28:38;2.38;;;2.00;;
2562;SDS011;1291;51.420;6.970;2023-06-14T07:31:03;3.40;;;2.10;;
2562;SDS011;1291;51.420;6.970;2023-06-14T07:33:35;2.72;;;2.20;;
2562;SDS011;1291;51.420;6.970;2023-06-14T07:36:00;6.75;;;2.45;;
2562;SDS011;1291;51.420;6.970;2023-06-14T07:38:26;2.83;;;2.08;;
2562;SDS011;1291;51.420;6.970;2023-06-14T07:40:51;8.82;;;2.83;;
2562;SDS011;1291;51.420;6.970;2023-06-14T07:43:17;3.80;;;2.22;;
2562;SDS011;1291;51.420;6.970;2023-06-14T07:45:42;2.92;;;2.03;;
2562;SDS011;1291;51.420;6.970;2023-06-14T07:48:07;5.40;;;2.20;;
2562;SDS011;1291;51.420;6.970;2023-06-14T07:50:34;4.53;;;2.33;;
2562;SDS011;1291;51.420;6.970;2023-06-14T07:52:59;7.63;;;2.10;;
2562;SDS011;1291;51.420;6.970;2023-06-14T07:55:24;3.58;;;2.00;;
2562;SDS011;1291;51.420;6.970;2023-06-14T07:57:50;6.60;;;2.33;;
2562;SDS011;1291;51.420;6.970;2023-06-14T08:00:15;2.85;;;2.05;;
2562;SDS011;1291;51.420;6.970;2023-06-14T08:02:43;3.63;;;2.30;;
2562;SDS011;1291;51.420;6.970;2023-06-14T08:05:09;4.60;;;2.38;;
2562;SDS011;1291;51.420;6.970;2023-06-14T08:07:36;6.88;;;2.25;;
2562;SDS011;1291;51.420;6.970;2023-06-14T08:10:01;6.53;;;2.25;;
2562;SDS011;1291;51.420;6.970;2023-06-14T08:12:27;2.65;;;2.20;;
2562;SDS011;1291;51.420;6.970;2023-06-14T08:14:52;4.95;;;2.10;;
2562;SDS011;1291;51.420;6.970;2023-06-14T08:17:18;4.28;;;2.10;;
2562;SDS011;1291;51.420;6.970;2023-06-14T08:19:43;7.38;;;2.45;;
2562;SDS011;1291;51.420;6.970;2023-06-14T08:22:08;2.97;;;2.03;;
2562;SDS011;1291;51.420;6.970;2023-06-14T08:24:36;2.53;;;2.05;;
2562;SDS011;1291;51.420;6.970;2023-06-14T08:27:02;5.97;;;2.15;;
2562;SDS011;1291;51.420;6.970;2023-06-14T08:29:27;9.30;;;2.00;;
2562;SDS011;1291;51.420;6.970;2023-06-14T08:31:54;7.55;;;2.70;;
2562;SDS011;1291;51.420;6.970;2023-06-14T08:34:20;6.20;;;2.40;;
2562;SDS011;1291;51.420;6.970;2023-06-14T08:36:48;2.30;;;2.10;;
2562;SDS011;1291;51.420;6.970;2023-06-14T08:39:13;3.70;;;2.33;;
2562;SDS011;1291;51.420;6.970;2023-06-14T08:41:42;5.60;;;2.00;;
2562;SDS011;1291;51.420;6.970;2023-06-14T08:44:10;11.32;;;2.60;;
2562;SDS011;1291;51.420;6.970;2023-06-14T08:46:36;2.70;;;2.17;;
2562;SDS011;1291;51.420;6.970;2023-06-14T08:49:02;2.60;;;2.17;;
2562;SDS011;1291;51.420;6.970;2023-06-14T08:51:28;2.58;;;2.30;;
2562;SDS011;1291;51.420;6.970;2023-06-14T08:53:59;4.10;;;1.88;;
2562;SDS011;1291;51.420;6.970;2023-06-14T08:56:26;5.70;;;2.20;;
2562;SDS011;1291;51.420;6.970;2023-06-14T08:58:56;4.22;;;2.13;;
2562;SDS011;1291;51.420;6.970;2023-06-14T09:01:26;2.97;;;2.30;;
2562;SDS011;1291;51.420;6.970;2023-06-14T09:03:54;3.55;;;2.40;;
2562;SDS011;1291;51.420;6.970;2023-06-14T09:06:20;3.33;;;2.20;;
2562;SDS011;1291;51.420;6.970;2023-06-14T09:08:47;2.60;;;2.40;;
2562;SDS011;1291;51.420;6.970;2023-06-14T09:11:14;4.32;;;2.30;;
2562;SDS011;1291;51.420;6.970;2023-06-14T09:13:45;6.00;;;2.17;;
2562;SDS011;1291;51.420;6.970;2023-06-14T09:16:11;3.05;;;2.35;;
2562;SDS011;1291;51.420;6.970;2023-06-14T09:21:03;2.40;;;1.80;;
2562;SDS011;1291;51.420;6.970;2023-06-14T09:23:39;2.58;;;1.95;;
2562;SDS011;1291;51.420;6.970;2023-06-14T09:26:12;2.30;;;1.80;;
2562;SDS011;1291;51.420;6.970;2023-06-14T09:28:42;5.38;;;2.05;;
2562;SDS011;1291;51.420;6.970;2023-06-14T09:31:10;5.20;;;1.90;;
2562;SDS011;1291;51.420;6.970;2023-06-14T09:33:36;4.93;;;2.47;;
2562;SDS011;1291;51.420;6.970;2023-06-14T09:36:01;2.10;;;1.80;;
2562;SDS011;1291;51.420;6.970;2023-06-14T09:38:27;2.75;;;1.73;;
2562;SDS011;1291;51.420;6.970;2023-06-14T09:40:52;2.05;;;1.85;;
2562;SDS011;1291;51.420;6.970;2023-06-14T09:43:21;2.00;;;1.83;;
2562;SDS011;1291;51.420;6.970;2023-06-14T09:45:50;5.55;;;2.00;;
2562;SDS011;1291;51.420;6.970;2023-06-14T09:48:16;2.38;;;1.90;;
2562;SDS011;1291;51.420;6.970;2023-06-14T09:50:45;7.22;;;2.20;;
2562;SDS011;1291;51.420;6.970;2023-06-14T09:53:14;3.83;;;1.70;;
2562;SDS011;1291;51.420;6.970;2023-06-14T09:55:41;6.18;;;2.00;;
2562;SDS011;1291;51.420;6.970;2023-06-14T09:58:08;4.43;;;1.80;;
2562;SDS011;1291;51.420;6.970;2023-06-14T10:00:36;1.80;;;1.70;;
2562;SDS011;1291;51.420;6.970;2023-06-14T10:03:11;2.60;;;1.58;;
2562;SDS011;1291;51.420;6.970;2023-06-14T10:05:37;1.55;;;1.45;;
2562;SDS011;1291;51.420;6.970;2023-06-14T10:08:10;5.43;;;1.60;;
2562;SDS011;1291;51.420;6.970;2023-06-14T10:10:40;2.65;;;1.50;;
2562;SDS011;1291;51.420;6.970;2023-06-14T10:13:07;4.63;;;1.63;;
2562;SDS011;1291;51.420;6.970;2023-06-14T10:15:35;2.38;;;1.50;;
2562;SDS011;1291;51.420;6.970;2023-06-14T10:18:21;5.30;;;1.80;;
2562;SDS011;1291;51.420;6.970;2023-06-14T10:23:44;1.70;;;1.60;;
2562;SDS011;1291;51.420;6.970;2023-06-14T10:26:17;1.40;;;1.30;;
2562;SDS011;1291;51.420;6.970;2023-06-14T10:29:01;10.82;;;1.80;;
2562;SDS011;1291;51.420;6.970;2023-06-14T10:34:12;3.42;;;1.42;;
2562;SDS011;1291;51.420;6.970;2023-06-14T10:36:50;1.98;;;1.45;;
2562;SDS011;1291;51.420;6.970;2023-06-14T10:39:45;3.95;;;1.30;;
2562;SDS011;1291;51.420;6.970;2023-06-14T10:42:11;4.30;;;1.23;;
2562;SDS011;1291;51.420;6.970;2023-06-14T10:47:04;2.53;;;1.55;;
2562;SDS011;1291;51.420;6.970;2023-06-14T10:49:45;4.93;;;1.50;;
2562;SDS011;1291;51.420;6.970;2023-06-14T10:52:17;3.00;;;1.65;;
2562;SDS011;1291;51.420;6.970;2023-06-14T10:54:55;3.15;;;1.55;;
2562;SDS011;1291;51.420;6.970;2023-06-14T10:57:31;4.50;;;1.63;;
2562;SDS011;1291;51.420;6.970;2023-06-14T11:00:00;1.92;;;1.45;;
2562;SDS011;1291;51.420;6.970;2023-06-14T11:10:47;2.05;;;1.60;;
2562;SDS011;1291;51.420;6.970;2023-06-14T11:13:12;2.28;;;1.77;;
2562;SDS011;1291;51.420;6.970;2023-06-14T11:15:43;2.65;;;1.30;;
2562;SDS011;1291;51.420;6.970;2023-06-14T11:18:10;4.93;;;1.92;;
2562;SDS011;1291;51.420;6.970;2023-06-14T11:20:37;3.90;;;1.85;;
2562;SDS011;1291;51.420;6.970;2023-06-14T11:23:02;4.18;;;1.70;;
2562;SDS011;1291;51.420;6.970;2023-06-14T11:25:29;3.00;;;1.45;;
2562;SDS011;1291;51.420;6.970;2023-06-14T11:27:54;2.67;;;1.63;;
2562;SDS011;1291;51.420;6.970;2023-06-14T11:30:23;3.22;;;1.65;;
2562;SDS011;1291;51.420;6.970;2023-06-14T11:32:51;4.13;;;3.38;;
2562;SDS011;1291;51.420;6.970;2023-06-14T11:35:18;8.70;;;3.00;;
2562;SDS011;1291;51.420;6.970;2023-06-14T11:37:46;4.38;;;2.45;;
2562;SDS011;1291;51.420;6.970;2023-06-14T11:40:15;4.28;;;2.70;;
2562;SDS011;1291;51.420;6.970;2023-06-14T11:42:41;4.82;;;3.10;;
2562;SDS011;1291;51.420;6.970;2023-06-14T11:45:10;5.65;;;2.33;;
2562;SDS011;1291;51.420;6.970;2023-06-14T11:47:37;9.07;;;1.90;;
2562;SDS011;1291;51.420;6.970;2023-06-14T11:50:07;3.83;;;2.40;;
2562;SDS011;1291;51.420;6.970;2023-06-14T11:52:35;8.30;;;2.25;;
2562;SDS011;1291;51.420;6.970;2023-06-14T11:55:01;5.63;;;2.17;;
2562;SDS011;1291;51.420;6.970;2023-06-14T11:57:30;4.57;;;2.17;;
2562;SDS011;1291;51.420;6.970;2023-06-14T11:59:55;5.80;;;1.50;;
2562;SDS011;1291;51.420;6.970;2023-06-14T12:02:21;6.13;;;1.90;;
2562;SDS011;1291;51.420;6.970;2023-06-14T12:04:47;3.60;;;2.08;;
2562;SDS011;1291;51.420;6.970;2023-06-14T12:07:16;5.38;;;1.83;;
2562;SDS011;1291;51.420;6.970;2023-06-14T12:12:22;1.73;;;1.63;;
2562;SDS011;1291;51.420;6.970;2023-06-14T12:14:47;4.28;;;1.98;;
2562;SDS011;1291;51.420;6.970;2023-06-14T12:17:16;5.03;;;1.75;;
2562;SDS011;1291;51.420;6.970;2023-06-14T12:19:43;3.72;;;1.70;;
2562;SDS011;1291;51.420;6.970;2023-06-14T12:22:09;2.05;;;1.67;;
2562;SDS011;1291;51.420;6.970;2023-06-14T12:24:35;6.43;;;2.50;;
2562;SDS011;1291;51.420;6.970;2023-06-14T12:27:01;4.97;;;1.80;;
2562;SDS011;1291;51.420;6.970;2023-06-14T12:29:28;7.15;;;1.80;;
2562;SDS011;1291;51.420;6.970;2023-06-14T12:31:54;3.63;;;2.10;;
2562;SDS011;1291;51.420;6.970;2023-06-14T12:34:22;2.28;;;2.08;;
2562;SDS011;1291;51.420;6.970;2023-06-14T12:36:48;2.83;;;2.00;;
2562;SDS011;1291;51.420;6.970;2023-06-14T12:39:15;2.33;;;1.83;;
2562;SDS011;1291;51.420;6.970;2023-06-14T12:41:44;3.25;;;1.92;;
2562;SDS011;1291;51.420;6.970;2023-06-14T12:44:10;3.78;;;2.38;;
2562;SDS011;1291;51.420;6.970;2023-06-14T12:46:36;5.00;;;2.22;;
2562;SDS011;1291;51.420;6.970;2023-06-14T12:49:02;7.13;;;2.15;;
2562;SDS011;1291;51.420;6.970;2023-06-14T12:51:27;8.75;;;2.60;;
2562;SDS011;1291;51.420;6.970;2023-06-14T12:53:52;5.25;;;2.10;;
2562;SDS011;1291;51.420;6.970;2023-06-14T12:56:18;4.75;;;2.05;;
2562;SDS011;1291;51.420;6.970;2023-06-14T12:58:43;5.35;;;2.13;;
2562;SDS011;1291;51.420;6.970;2023-06-14T13:01:11;8.32;;;2.03;;
2562;SDS011;1291;51.420;6.970;2023-06-14T13:03:37;9.50;;;2.08;;
2562;SDS011;1291;51.420;6.970;2023-06-14T13:06:02;3.38;;;2.20;;
2562;SDS011;1291;51.420;6.970;2023-06-14T13:08:29;2.33;;;1.92;;
2562;SDS011;1291;51.420;6.970;2023-06-14T13:10:55;2.47;;;2.28;;
2562;SDS011;1291;51.420;6.970;2023-06-14T13:13:23;1.83;;;1.50;;
2562;SDS011;1291;51.420;6.970;2023-06-14T13:15:49;5.60;;;2.33;;
2562;SDS011;1291;51.420;6.970;2023-06-14T13:18:15;4.70;;;2.10;;
2562;SDS011;1291;51.420;6.970;2023-06-14T13:20:41;3.88;;;2.80;;
2562;SDS011;1291;51.420;6.970;2023-06-14T13:23:07;8.18;;;2.47;;
2562;SDS011;1291;51.420;6.970;2023-06-14T13:25:36;3.00;;;2.05;;
2562;SDS011;1291;51.420;6.970;2023-06-14T13:28:03;4.57;;;2.00;;
2562;SDS011;1291;51.420;6.970;2023-06-14T13:30:29;6.03;;;2.22;;
2562;SDS011;1291;51.420;6.970;2023-06-14T13:32:55;7.10;;;2.40;;
2562;SDS011;1291;51.420;6.970;2023-06-14T13:35:21;6.60;;;2.25;;
2562;SDS011;1291;51.420;6.970;2023-06-14T13:37:47;3.35;;;2.70;;
2562;SDS011;1291;51.420;6.970;2023-06-14T13:40:12;2.17;;;1.98;;
2562;SDS011;1291;51.420;6.970;2023-06-14T13:42:38;1.95;;;1.85;;
2562;SDS011;1291;51.420;6.970;2023-06-14T13:45:03;4.97;;;2.00;;
2562;SDS011;1291;51.420;6.970;2023-06-14T13:47:39;3.88;;;2.45;;
2562;SDS011;1291;51.420;6.970;2023-06-14T13:50:04;3.25;;;1.75;;
2562;SDS011;1291;51.420;6.970;2023-06-14T13:52:30;4.93;;;2.45;;
2562;SDS011;1291;51.420;6.970;2023-06-14T13:54:58;2.38;;;1.90;;
2562;SDS011;1291;51.420;6.970;2023-06-14T13:57:25;3.50;;;2.22;;
2562;SDS011;1291;51.420;6.970;2023-06-14T13:59:50;6.78;;;2.13;;
2562;SDS011;1291;51.420;6.970;2023-06-14T14:02:17;5.93;;;2.00;;
2562;SDS011;1291;51.420;6.970;2023-06-14T14:04:43;2.53;;;2.20;;
2562;SDS011;1291;51.420;6.970;2023-06-14T14:07:08;3.47;;;2.15;;
2562;SDS011;1291;51.420;6.970;2023-06-14T14:09:34;3.30;;;2.03;;
2562;SDS011;1291;51.420;6.970;2023-06-14T14:12:00;3.25;;;2.13;;
2562;SDS011;1291;51.420;6.970;2023-06-14T14:14:27;4.20;;;1.85;;
2562;SDS011;1291;51.420;6.970;2023-06-14T14:16:53;3.20;;;1.92;;
2562;SDS011;1291;51.420;6.970;2023-06-14T14:19:19;2.45;;;2.25;;
2562;SDS011;1291;51.420;6.970;2023-06-14T14:21:46;3.67;;;2.03;;
2562;SDS011;1291;51.420;6.970;2023-06-14T14:24:11;4.25;;;2.63;;
2562;SDS011;1291;51.420;6.970;2023-06-14T14:26:37;2.35;;;1.83;;
2562;SDS011;1291;51.420;6.970;2023-06-14T14:29:02;3.95;;;2.53;;
2562;SDS011;1291;51.420;6.970;2023-06-14T14:31:30;2.25;;;1.85;;
2562;SDS011;1291;51.420;6.970;2023-06-14T14:33:56;3.55;;;2.15;;
2562;SDS011;1291;51.420;6.970;2023-06-14T14:36:21;8.00;;;2.10;;
2562;SDS011;1291;51.420;6.970;2023-06-14T14:38:47;4.18;;;1.98;;
2562;SDS011;1291;51.420;6.970;2023-06-14T14:41:12;4.40;;;2.28;;
2562;SDS011;1291;51.420;6.970;2023-06-14T14:43:38;2.10;;;2.00;;
2562;SDS011;1291;51.420;6.970;2023-06-14T14:46:03;4.72;;;2.00;;
2562;SDS011;1291;51.420;6.970;2023-06-14T14:48:28;2.03;;;1.92;;
2562;SDS011;1291;51.420;6.970;2023-06-14T14:50:54;2.13;;;1.92;;
2562;SDS011;1291;51.420;6.970;2023-06-14T14:53:19;3.85;;;2.45;;
2562;SDS011;1291;51.420;6.970;2023-06-14T14:55:45;2.47;;;2.28;;
2562;SDS011;1291;51.420;6.970;2023-06-14T14:58:11;2.83;;;2.33;;
2562;SDS011;1291;51.420;6.970;2023-06-14T15:00:37;4.20;;;2.17;;
2562;SDS011;1291;51.420;6.970;2023-06-14T15:03:02;3.90;;;2.20;;
2562;SDS011;1291;51.420;6.970;2023-06-14T15:05:28;2.78;;;2.30;;
2562;SDS011;1291;51.420;6.970;2023-06-14T15:07:53;2.40;;;2.20;;
2562;SDS011;1291;51.420;6.970;2023-06-14T15:10:19;2.45;;;2.25;;
2562;SDS011;1291;51.420;6.970;2023-06-14T15:12:44;3.38;;;2.10;;
2562;SDS011;1291;51.420;6.970;2023-06-14T15:15:10;3.97;;;2.40;;
2562;SDS011;1291;51.420;6.970;2023-06-14T15:17:35;3.40;;;2.40;;
2562;SDS011;1291;51.420;6.970;2023-06-14T15:20:00;7.70;;;2.20;;
2562;SDS011;1291;51.420;6.970;2023-06-14T15:22:26;3.85;;;2.50;;
2562;SDS011;1291;51.420;6.970;2023-06-14T15:24:51;2.72;;;2.50;;
2562;SDS011;1291;51.420;6.970;2023-06-14T15:27:17;2.40;;;2.20;;
2562;SDS011;1291;51.420;6.970;2023-06-14T15:29:42;7.60;;;2.90;;
2562;SDS011;1291;51.420;6.970;2023-06-14T15:32:09;4.00;;;2.20;;
2562;SDS011;1291;51.420;6.970;2023-06-14T15:34:36;4.07;;;2.67;;
2562;SDS011;1291;51.420;6.970;2023-06-14T15:37:04;2.83;;;2.50;;